sensor_id;sensor_type;location;lat;lon;timestamp;P1;durP1;ratioP1;P2;durP2;ratioP2
27539;SDS011;15906;52.046;4.724;2023-02-21T00:00:51;37.80;;;19.50;;
27539;SDS011;15906;52.046;4.724;2023-02-21T00:03:35;41.83;;;20.58;;
27539;SDS011;15906;52.046;4.724;2023-02-21T00:06:20;45.30;;;20.23;;
27539;SDS011;15906;52.046;4.724;2023-02-21T00:09:04;35.92;;;19.50;;
27539;SDS011;15906;52.046;4.724;2023-02-21T00:11:48;43.95;;;21.48;;
27539;SDS011;15906;52.046;4.724;2023-02-21T00:14:32;41.95;;;19.25;;
27539;SDS011;15906;52.046;4.724;2023-02-21T00:17:16;46.85;;;20.23;;
27539;SDS011;15906;52.046;4.724;2023-02-21T00:20:00;45.45;;;19.52;;
27539;SDS011;15906;52.046;4.724;2023-02-21T00:22:44;45.97;;;21.65;;
27539;SDS011;15906;52.046;4.724;2023-02-21T00:25:28;45.88;;;22.63;;
27539;SDS011;15906;52.046;4.724;2023-02-21T00:28:13;42.85;;;22.15;;
27539;SDS011;15906;52.046;4.724;2023-02-21T00:30:57;47.95;;;24.08;;
27539;SDS011;15906;52.046;4.724;2023-02-21T00:33:41;45.95;;;23.15;;
27539;SDS011;15906;52.046;4.724;2023-02-21T00:36:25;45.22;;;21.17;;
27539;SDS011;15906;52.046;4.724;2023-02-21T00:39:09;41.78;;;21.13;;
27539;SDS011;15906;52.046;4.724;2023-02-21T00:41:53;47.75;;;23.63;;
27539;SDS011;15906;52.046;4.724;2023-02-21T00:44:37;43.67;;;22.00;;
27539;SDS011;15906;52.046;4.724;2023-02-21T00:47:21;43.47;;;21.77;;
27539;SDS011;15906;52.046;4.724;2023-02-21T00:50:06;49.42;;;22.70;;
27539;SDS011;15906;52.046;4.724;2023-02-21T00:52:50;45.75;;;22.85;;
27539;SDS011;15906;52.046;4.724;2023-02-21T00:55:34;47.47;;;22.75;;
27539;SDS011;15906;52.046;4.724;2023-02-21T00:58:20;44.28;;;22.13;;
27539;SDS011;15906;52.046;4.724;2023-02-21T01:01:04;42.67;;;23.98;;
27539;SDS011;15906;52.046;4.724;2023-02-21T01:03:48;48.53;;;23.13;;
27539;SDS011;15906;52.046;4.724;2023-02-21T01:06:33;49.25;;;22.15;;
27539;SDS011;15906;52.046;4.724;2023-02-21T01:09:16;41.10;;;21.35;;
27539;SDS011;15906;52.046;4.724;2023-02-21T01:12:00;49.78;;;22.70;;
27539;SDS011;15906;52.046;4.724;2023-02-21T01:14:44;50.47;;;20.70;;
27539;SDS011;15906;52.046;4.724;2023-02-21T01:17:28;40.50;;;19.30;;
27539;SDS011;15906;52.046;4.724;2023-02-21T01:20:12;54.00;;;23.73;;
27539;SDS011;15906;52.046;4.724;2023-02-21T01:22:57;45.17;;;21.00;;
27539;SDS011;15906;52.046;4.724;2023-02-21T01:25:41;51.60;;;22.98;;
27539;SDS011;15906;52.046;4.724;2023-02-21T01:28:25;48.20;;;22.55;;
27539;SDS011;15906;52.046;4.724;2023-02-21T01:31:09;51.35;;;22.67;;
27539;SDS011;15906;52.046;4.724;2023-02-21T01:33:53;48.67;;;24.23;;
27539;SDS011;15906;52.046;4.724;2023-02-21T01:36:39;50.00;;;22.75;;
27539;SDS011;15906;52.046;4.724;2023-02-21T01:39:24;52.67;;;23.48;;
27539;SDS011;15906;52.046;4.724;2023-02-21T01:42:09;46.80;;;21.85;;
27539;SDS011;15906;52.046;4.724;2023-02-21T01:48:10;53.33;;;23.90;;
27539;SDS011;15906;52.046;4.724;2023-02-21T01:50:58;49.83;;;23.15;;
27539;SDS011;15906;52.046;4.724;2023-02-21T01:53:43;57.35;;;23.98;;
27539;SDS011;15906;52.046;4.724;2023-02-21T01:56:28;54.90;;;23.75;;
27539;SDS011;15906;52.046;4.724;2023-02-21T01:59:13;48.67;;;23.27;;
27539;SDS011;15906;52.046;4.724;2023-02-21T02:02:04;50.80;;;23.15;;
27539;SDS011;15906;52.046;4.724;2023-02-21T02:04:55;52.60;;;24.10;;
27539;SDS011;15906;52.046;4.724;2023-02-21T02:07:41;52.30;;;25.70;;
27539;SDS011;15906;52.046;4.724;2023-02-21T02:10:25;52.25;;;24.35;;
27539;SDS011;15906;52.046;4.724;2023-02-21T02:19:00;56.28;;;25.27;;
27539;SDS011;15906;52.046;4.724;2023-02-21T02:24:34;63.97;;;25.77;;
27539;SDS011;15906;52.046;4.724;2023-02-21T02:27:30;57.13;;;25.60;;
27539;SDS011;15906;52.046;4.724;2023-02-21T02:38:07;57.95;;;25.42;;
27539;SDS011;15906;52.046;4.724;2023-02-21T02:41:11;56.83;;;25.13;;
27539;SDS011;15906;52.046;4.724;2023-02-21T02:43:54;57.72;;;24.23;;
27539;SDS011;15906;52.046;4.724;2023-02-21T02:46:30;57.97;;;26.33;;
27539;SDS011;15906;52.046;4.724;2023-02-21T02:49:00;57.22;;;25.05;;
27539;SDS011;15906;52.046;4.724;2023-02-21T02:51:34;51.75;;;25.10;;
27539;SDS011;15906;52.046;4.724;2023-02-21T02:54:01;58.55;;;24.90;;
27539;SDS011;15906;52.046;4.724;2023-02-21T02:56:26;56.13;;;26.27;;
27539;SDS011;15906;52.046;4.724;2023-02-21T02:58:55;52.45;;;26.15;;
27539;SDS011;15906;52.046;4.724;2023-02-21T03:06:43;53.28;;;25.88;;
27539;SDS011;15906;52.046;4.724;2023-02-21T03:12:07;55.65;;;25.67;;
27539;SDS011;15906;52.046;4.724;2023-02-21T03:14:45;58.17;;;27.02;;
27539;SDS011;15906;52.046;4.724;2023-02-21T03:17:15;58.72;;;25.75;;
27539;SDS011;15906;52.046;4.724;2023-02-21T03:19:44;58.10;;;26.92;;
27539;SDS011;15906;52.046;4.724;2023-02-21T03:22:12;69.45;;;29.05;;
27539;SDS011;15906;52.046;4.724;2023-02-21T03:24:41;59.80;;;28.67;;
27539;SDS011;15906;52.046;4.724;2023-02-21T03:27:08;54.40;;;27.52;;
27539;SDS011;15906;52.046;4.724;2023-02-21T03:29:35;65.10;;;28.40;;
27539;SDS011;15906;52.046;4.724;2023-02-21T03:32:07;62.72;;;30.92;;
27539;SDS011;15906;52.046;4.724;2023-02-21T03:34:43;59.70;;;28.25;;
27539;SDS011;15906;52.046;4.724;2023-02-21T03:37:10;69.80;;;29.90;;
27539;SDS011;15906;52.046;4.724;2023-02-21T03:39:59;64.85;;;29.38;;
27539;SDS011;15906;52.046;4.724;2023-02-21T03:42:26;68.78;;;31.27;;
27539;SDS011;15906;52.046;4.724;2023-02-21T03:44:51;63.25;;;29.70;;
27539;SDS011;15906;52.046;4.724;2023-02-21T03:47:17;66.50;;;31.25;;
27539;SDS011;15906;52.046;4.724;2023-02-21T03:49:42;68.15;;;30.17;;
27539;SDS011;15906;52.046;4.724;2023-02-21T03:52:08;70.40;;;31.52;;
27539;SDS011;15906;52.046;4.724;2023-02-21T03:54:36;68.22;;;31.95;;
27539;SDS011;15906;52.046;4.724;2023-02-21T03:57:05;73.45;;;32.47;;
27539;SDS011;15906;52.046;4.724;2023-02-21T03:59:31;68.22;;;31.40;;
27539;SDS011;15906;52.046;4.724;2023-02-21T04:01:57;68.50;;;32.13;;
27539;SDS011;15906;52.046;4.724;2023-02-21T04:04:23;71.45;;;33.97;;
27539;SDS011;15906;52.046;4.724;2023-02-21T04:06:48;66.47;;;31.55;;
27539;SDS011;15906;52.046;4.724;2023-02-21T04:09:14;66.90;;;31.73;;
27539;SDS011;15906;52.046;4.724;2023-02-21T04:11:43;69.38;;;30.52;;
27539;SDS011;15906;52.046;4.724;2023-02-21T04:14:09;60.53;;;29.73;;
27539;SDS011;15906;52.046;4.724;2023-02-21T04:16:35;74.07;;;33.00;;
27539;SDS011;15906;52.046;4.724;2023-02-21T04:19:00;68.05;;;30.75;;
27539;SDS011;15906;52.046;4.724;2023-02-21T04:21:27;79.35;;;35.72;;
27539;SDS011;15906;52.046;4.724;2023-02-21T04:23:52;66.25;;;32.15;;
27539;SDS011;15906;52.046;4.724;2023-02-21T04:26:18;72.13;;;31.55;;
27539;SDS011;15906;52.046;4.724;2023-02-21T04:28:44;67.15;;;31.33;;
27539;SDS011;15906;52.046;4.724;2023-02-21T04:31:09;62.80;;;30.88;;
27539;SDS011;15906;52.046;4.724;2023-02-21T04:33:35;68.55;;;31.65;;
27539;SDS011;15906;52.046;4.724;2023-02-21T04:36:01;64.45;;;30.50;;
27539;SDS011;15906;52.046;4.724;2023-02-21T04:38:27;66.32;;;31.15;;
27539;SDS011;15906;52.046;4.724;2023-02-21T04:40:52;73.05;;;32.38;;
27539;SDS011;15906;52.046;4.724;2023-02-21T04:43:18;65.85;;;29.95;;
27539;SDS011;15906;52.046;4.724;2023-02-21T04:45:45;76.15;;;34.83;;
27539;SDS011;15906;52.046;4.724;2023-02-21T04:48:11;70.45;;;32.65;;
27539;SDS011;15906;52.046;4.724;2023-02-21T04:50:36;71.13;;;32.10;;
27539;SDS011;15906;52.046;4.724;2023-02-21T04:53:02;68.60;;;31.23;;
27539;SDS011;15906;52.046;4.724;2023-02-21T04:55:27;72.68;;;32.65;;
27539;SDS011;15906;52.046;4.724;2023-02-21T04:57:53;69.85;;;33.42;;
27539;SDS011;15906;52.046;4.724;2023-02-21T05:00:18;71.18;;;33.20;;
27539;SDS011;15906;52.046;4.724;2023-02-21T05:02:44;81.78;;;35.05;;
27539;SDS011;15906;52.046;4.724;2023-02-21T05:05:10;69.10;;;32.05;;
27539;SDS011;15906;52.046;4.724;2023-02-21T05:07:35;70.55;;;33.55;;
27539;SDS011;15906;52.046;4.724;2023-02-21T05:10:01;71.72;;;33.90;;
27539;SDS011;15906;52.046;4.724;2023-02-21T05:12:29;75.28;;;32.20;;
27539;SDS011;15906;52.046;4.724;2023-02-21T05:14:55;72.10;;;35.05;;
27539;SDS011;15906;52.046;4.724;2023-02-21T05:17:21;79.07;;;32.17;;
27539;SDS011;15906;52.046;4.724;2023-02-21T05:19:46;73.57;;;31.83;;
27539;SDS011;15906;52.046;4.724;2023-02-21T05:22:12;65.55;;;31.85;;
27539;SDS011;15906;52.046;4.724;2023-02-21T05:24:40;74.50;;;32.78;;
27539;SDS011;15906;52.046;4.724;2023-02-21T05:27:06;68.85;;;34.78;;
27539;SDS011;15906;52.046;4.724;2023-02-21T05:29:35;78.88;;;35.28;;
27539;SDS011;15906;52.046;4.724;2023-02-21T05:32:01;69.13;;;32.83;;
27539;SDS011;15906;52.046;4.724;2023-02-21T05:34:26;79.88;;;37.13;;
27539;SDS011;15906;52.046;4.724;2023-02-21T05:36:52;62.05;;;31.73;;
27539;SDS011;15906;52.046;4.724;2023-02-21T05:39:18;75.45;;;33.63;;
27539;SDS011;15906;52.046;4.724;2023-02-21T05:41:47;72.18;;;33.72;;
27539;SDS011;15906;52.046;4.724;2023-02-21T05:44:13;72.25;;;32.58;;
27539;SDS011;15906;52.046;4.724;2023-02-21T05:46:39;76.13;;;33.38;;
27539;SDS011;15906;52.046;4.724;2023-02-21T05:49:05;68.68;;;34.45;;
27539;SDS011;15906;52.046;4.724;2023-02-21T05:51:35;73.30;;;34.08;;
27539;SDS011;15906;52.046;4.724;2023-02-21T05:54:02;62.40;;;31.73;;
27539;SDS011;15906;52.046;4.724;2023-02-21T05:56:28;69.63;;;32.83;;
27539;SDS011;15906;52.046;4.724;2023-02-21T05:58:53;73.35;;;33.00;;
27539;SDS011;15906;52.046;4.724;2023-02-21T06:01:19;68.68;;;32.42;;
27539;SDS011;15906;52.046;4.724;2023-02-21T06:03:44;75.38;;;33.17;;
27539;SDS011;15906;52.046;4.724;2023-02-21T06:06:11;71.40;;;33.03;;
27539;SDS011;15906;52.046;4.724;2023-02-21T06:08:46;67.10;;;33.20;;
27539;SDS011;15906;52.046;4.724;2023-02-21T06:11:13;70.15;;;32.17;;
27539;SDS011;15906;52.046;4.724;2023-02-21T06:13:40;68.35;;;33.58;;
27539;SDS011;15906;52.046;4.724;2023-02-21T06:16:05;71.22;;;33.50;;
27539;SDS011;15906;52.046;4.724;2023-02-21T06:18:31;73.85;;;34.45;;
27539;SDS011;15906;52.046;4.724;2023-02-21T06:20:57;73.35;;;32.80;;
27539;SDS011;15906;52.046;4.724;2023-02-21T06:23:22;70.28;;;32.70;;
27539;SDS011;15906;52.046;4.724;2023-02-21T06:25:48;69.13;;;32.47;;
27539;SDS011;15906;52.046;4.724;2023-02-21T06:28:13;67.28;;;32.63;;
27539;SDS011;15906;52.046;4.724;2023-02-21T06:30:39;73.40;;;32.50;;
27539;SDS011;15906;52.046;4.724;2023-02-21T06:33:04;69.03;;;32.70;;
27539;SDS011;15906;52.046;4.724;2023-02-21T06:35:30;71.55;;;34.05;;
27539;SDS011;15906;52.046;4.724;2023-02-21T06:37:55;79.78;;;34.80;;
27539;SDS011;15906;52.046;4.724;2023-02-21T06:40:21;69.85;;;33.97;;
27539;SDS011;15906;52.046;4.724;2023-02-21T06:42:47;78.95;;;33.53;;
27539;SDS011;15906;52.046;4.724;2023-02-21T06:45:27;68.97;;;32.15;;
27539;SDS011;15906;52.046;4.724;2023-02-21T06:47:53;74.57;;;33.47;;
27539;SDS011;15906;52.046;4.724;2023-02-21T06:50:18;70.55;;;32.08;;
27539;SDS011;15906;52.046;4.724;2023-02-21T06:52:44;75.47;;;33.40;;
27539;SDS011;15906;52.046;4.724;2023-02-21T06:55:09;72.13;;;32.58;;
27539;SDS011;15906;52.046;4.724;2023-02-21T06:57:35;81.78;;;36.40;;
27539;SDS011;15906;52.046;4.724;2023-02-21T07:00:01;72.53;;;34.78;;
27539;SDS011;15906;52.046;4.724;2023-02-21T07:02:28;72.72;;;33.28;;
27539;SDS011;15906;52.046;4.724;2023-02-21T07:04:53;68.43;;;32.63;;
27539;SDS011;15906;52.046;4.724;2023-02-21T07:07:19;74.90;;;34.67;;
27539;SDS011;15906;52.046;4.724;2023-02-21T07:09:45;71.78;;;32.63;;
27539;SDS011;15906;52.046;4.724;2023-02-21T07:12:10;71.35;;;32.95;;
27539;SDS011;15906;52.046;4.724;2023-02-21T07:14:36;69.47;;;33.00;;
27539;SDS011;15906;52.046;4.724;2023-02-21T07:17:01;67.57;;;34.67;;
27539;SDS011;15906;52.046;4.724;2023-02-21T07:19:27;66.72;;;32.15;;
27539;SDS011;15906;52.046;4.724;2023-02-21T07:21:52;73.20;;;34.25;;
27539;SDS011;15906;52.046;4.724;2023-02-21T07:24:18;72.40;;;31.75;;
27539;SDS011;15906;52.046;4.724;2023-02-21T07:26:44;79.55;;;34.08;;
27539;SDS011;15906;52.046;4.724;2023-02-21T07:29:09;78.55;;;33.30;;
27539;SDS011;15906;52.046;4.724;2023-02-21T07:31:35;73.90;;;34.30;;
27539;SDS011;15906;52.046;4.724;2023-02-21T07:34:00;72.07;;;32.20;;
27539;SDS011;15906;52.046;4.724;2023-02-21T07:36:26;76.75;;;31.70;;
27539;SDS011;15906;52.046;4.724;2023-02-21T07:38:51;66.05;;;31.55;;
27539;SDS011;15906;52.046;4.724;2023-02-21T07:41:17;69.50;;;32.72;;
27539;SDS011;15906;52.046;4.724;2023-02-21T07:43:43;64.10;;;32.67;;
27539;SDS011;15906;52.046;4.724;2023-02-21T07:46:12;68.47;;;31.45;;
27539;SDS011;15906;52.046;4.724;2023-02-21T07:48:39;81.13;;;33.22;;
27539;SDS011;15906;52.046;4.724;2023-02-21T07:51:05;65.15;;;31.52;;
27539;SDS011;15906;52.046;4.724;2023-02-21T07:53:32;69.03;;;33.63;;
27539;SDS011;15906;52.046;4.724;2023-02-21T07:55:57;69.40;;;32.40;;
27539;SDS011;15906;52.046;4.724;2023-02-21T07:58:23;63.00;;;33.55;;
27539;SDS011;15906;52.046;4.724;2023-02-21T08:00:50;70.82;;;32.80;;
27539;SDS011;15906;52.046;4.724;2023-02-21T08:03:16;74.45;;;33.45;;
27539;SDS011;15906;52.046;4.724;2023-02-21T08:05:42;71.15;;;32.30;;
27539;SDS011;15906;52.046;4.724;2023-02-21T08:08:09;70.18;;;31.15;;
27539;SDS011;15906;52.046;4.724;2023-02-21T08:10:36;62.63;;;31.02;;
27539;SDS011;15906;52.046;4.724;2023-02-21T08:13:01;63.85;;;31.48;;
27539;SDS011;15906;52.046;4.724;2023-02-21T08:15:27;72.68;;;31.65;;
27539;SDS011;15906;52.046;4.724;2023-02-21T08:17:53;70.35;;;31.40;;
27539;SDS011;15906;52.046;4.724;2023-02-21T08:20:19;64.57;;;31.65;;
27539;SDS011;15906;52.046;4.724;2023-02-21T08:22:44;67.20;;;32.88;;
27539;SDS011;15906;52.046;4.724;2023-02-21T08:25:10;70.43;;;31.85;;
27539;SDS011;15906;52.046;4.724;2023-02-21T08:27:40;63.30;;;31.02;;
27539;SDS011;15906;52.046;4.724;2023-02-21T08:30:07;71.00;;;32.80;;
27539;SDS011;15906;52.046;4.724;2023-02-21T08:32:34;73.47;;;31.55;;
27539;SDS011;15906;52.046;4.724;2023-02-21T08:35:00;70.85;;;31.50;;
27539;SDS011;15906;52.046;4.724;2023-02-21T08:37:27;70.20;;;32.42;;
27539;SDS011;15906;52.046;4.724;2023-02-21T08:39:57;60.90;;;30.33;;
27539;SDS011;15906;52.046;4.724;2023-02-21T08:42:23;60.90;;;31.92;;
27539;SDS011;15906;52.046;4.724;2023-02-21T08:44:49;60.75;;;30.10;;
27539;SDS011;15906;52.046;4.724;2023-02-21T08:47:15;59.55;;;29.60;;
27539;SDS011;15906;52.046;4.724;2023-02-21T08:49:43;63.72;;;31.48;;
27539;SDS011;15906;52.046;4.724;2023-02-21T08:52:15;63.42;;;31.63;;
27539;SDS011;15906;52.046;4.724;2023-02-21T08:54:42;69.72;;;31.63;;
27539;SDS011;15906;52.046;4.724;2023-02-21T08:57:08;69.20;;;31.75;;
27539;SDS011;15906;52.046;4.724;2023-02-21T08:59:34;69.50;;;29.75;;
27539;SDS011;15906;52.046;4.724;2023-02-21T09:02:06;59.72;;;28.38;;
27539;SDS011;15906;52.046;4.724;2023-02-21T09:04:39;62.58;;;29.95;;
27539;SDS011;15906;52.046;4.724;2023-02-21T09:07:05;60.05;;;30.60;;
27539;SDS011;15906;52.046;4.724;2023-02-21T09:09:31;63.22;;;30.83;;
27539;SDS011;15906;52.046;4.724;2023-02-21T09:11:57;66.05;;;30.70;;
27539;SDS011;15906;52.046;4.724;2023-02-21T09:14:22;68.43;;;32.63;;
27539;SDS011;15906;52.046;4.724;2023-02-21T09:16:48;68.32;;;34.03;;
27539;SDS011;15906;52.046;4.724;2023-02-21T09:19:13;69.25;;;31.00;;
27539;SDS011;15906;52.046;4.724;2023-02-21T09:21:44;62.78;;;29.65;;
27539;SDS011;15906;52.046;4.724;2023-02-21T09:24:11;68.68;;;31.98;;
27539;SDS011;15906;52.046;4.724;2023-02-21T09:26:37;69.40;;;32.75;;
27539;SDS011;15906;52.046;4.724;2023-02-21T09:29:02;62.45;;;29.95;;
27539;SDS011;15906;52.046;4.724;2023-02-21T09:31:28;64.22;;;30.95;;
27539;SDS011;15906;52.046;4.724;2023-02-21T09:33:53;70.30;;;31.88;;
27539;SDS011;15906;52.046;4.724;2023-02-21T09:36:19;66.40;;;33.28;;
27539;SDS011;15906;52.046;4.724;2023-02-21T09:38:48;70.78;;;32.65;;
27539;SDS011;15906;52.046;4.724;2023-02-21T09:41:15;62.72;;;31.83;;
27539;SDS011;15906;52.046;4.724;2023-02-21T09:43:45;63.50;;;30.17;;
27539;SDS011;15906;52.046;4.724;2023-02-21T09:49:02;62.92;;;31.48;;
27539;SDS011;15906;52.046;4.724;2023-02-21T09:51:31;67.78;;;33.20;;
27539;SDS011;15906;52.046;4.724;2023-02-21T09:53:58;69.82;;;32.95;;
27539;SDS011;15906;52.046;4.724;2023-02-21T09:56:27;71.95;;;32.60;;
27539;SDS011;15906;52.046;4.724;2023-02-21T09:58:55;73.70;;;34.35;;
27539;SDS011;15906;52.046;4.724;2023-02-21T10:01:30;68.97;;;32.58;;
27539;SDS011;15906;52.046;4.724;2023-02-21T10:07:10;76.53;;;35.65;;
27539;SDS011;15906;52.046;4.724;2023-02-21T10:09:50;66.25;;;32.35;;
27539;SDS011;15906;52.046;4.724;2023-02-21T10:17:52;73.72;;;32.70;;
27539;SDS011;15906;52.046;4.724;2023-02-21T10:20:49;72.65;;;33.53;;
27539;SDS011;15906;52.046;4.724;2023-02-21T10:23:18;73.38;;;33.40;;
27539;SDS011;15906;52.046;4.724;2023-02-21T10:25:48;80.57;;;34.33;;
27539;SDS011;15906;52.046;4.724;2023-02-21T10:28:21;79.13;;;33.13;;
27539;SDS011;15906;52.046;4.724;2023-02-21T10:30:48;76.68;;;33.60;;
27539;SDS011;15906;52.046;4.724;2023-02-21T10:33:15;73.57;;;33.90;;
27539;SDS011;15906;52.046;4.724;2023-02-21T10:35:41;74.63;;;32.50;;
27539;SDS011;15906;52.046;4.724;2023-02-21T10:38:18;69.57;;;30.73;;
27539;SDS011;15906;52.046;4.724;2023-02-21T10:40:51;70.68;;;32.85;;
27539;SDS011;15906;52.046;4.724;2023-02-21T10:43:30;70.60;;;31.13;;
27539;SDS011;15906;52.046;4.724;2023-02-21T10:48:47;73.13;;;31.10;;
27539;SDS011;15906;52.046;4.724;2023-02-21T10:51:28;74.85;;;30.77;;
27539;SDS011;15906;52.046;4.724;2023-02-21T10:54:15;71.78;;;29.90;;
27539;SDS011;15906;52.046;4.724;2023-02-21T10:56:46;68.28;;;30.40;;
27539;SDS011;15906;52.046;4.724;2023-02-21T10:59:29;64.05;;;29.83;;
27539;SDS011;15906;52.046;4.724;2023-02-21T11:01:57;62.67;;;28.77;;
27539;SDS011;15906;52.046;4.724;2023-02-21T11:04:24;57.90;;;28.80;;
27539;SDS011;15906;52.046;4.724;2023-02-21T11:17:23;61.05;;;30.38;;
27539;SDS011;15906;52.046;4.724;2023-02-21T11:19:51;57.35;;;27.92;;
27539;SDS011;15906;52.046;4.724;2023-02-21T11:22:19;59.65;;;29.17;;
27539;SDS011;15906;52.046;4.724;2023-02-21T11:30:27;84.63;;;34.83;;
27539;SDS011;15906;52.046;4.724;2023-02-21T11:32:55;73.43;;;34.20;;
27539;SDS011;15906;52.046;4.724;2023-02-21T11:35:29;73.60;;;34.58;;
27539;SDS011;15906;52.046;4.724;2023-02-21T11:38:05;80.25;;;35.47;;
27539;SDS011;15906;52.046;4.724;2023-02-21T11:40:49;74.60;;;34.33;;
27539;SDS011;15906;52.046;4.724;2023-02-21T11:46:00;71.82;;;32.90;;
27539;SDS011;15906;52.046;4.724;2023-02-21T11:54:13;68.72;;;34.55;;
27539;SDS011;15906;52.046;4.724;2023-02-21T11:56:50;66.72;;;32.10;;
27539;SDS011;15906;52.046;4.724;2023-02-21T12:02:23;57.75;;;29.55;;
27539;SDS011;15906;52.046;4.724;2023-02-21T12:08:13;60.92;;;30.15;;
27539;SDS011;15906;52.046;4.724;2023-02-21T12:24:44;55.58;;;28.77;;
27539;SDS011;15906;52.046;4.724;2023-02-21T12:38:13;61.85;;;31.33;;
27539;SDS011;15906;52.046;4.724;2023-02-21T12:40:56;59.08;;;32.30;;
27539;SDS011;15906;52.046;4.724;2023-02-21T12:43:49;58.65;;;31.05;;
27539;SDS011;15906;52.046;4.724;2023-02-21T12:46:20;57.50;;;28.75;;
27539;SDS011;15906;52.046;4.724;2023-02-21T12:49:18;59.05;;;30.83;;
27539;SDS011;15906;52.046;4.724;2023-02-21T12:53:06;55.22;;;29.27;;
27539;SDS011;15906;52.046;4.724;2023-02-21T12:57:47;56.25;;;29.48;;
27539;SDS011;15906;52.046;4.724;2023-02-21T13:00:22;48.50;;;26.63;;
27539;SDS011;15906;52.046;4.724;2023-02-21T13:05:44;47.03;;;26.33;;
27539;SDS011;15906;52.046;4.724;2023-02-21T13:08:14;43.67;;;24.00;;
27539;SDS011;15906;52.046;4.724;2023-02-21T13:13:26;38.55;;;20.55;;
27539;SDS011;15906;52.046;4.724;2023-02-21T13:15:56;37.70;;;19.23;;
27539;SDS011;15906;52.046;4.724;2023-02-21T13:21:32;36.40;;;20.63;;
27539;SDS011;15906;52.046;4.724;2023-02-21T13:30:13;44.47;;;22.20;;
27539;SDS011;15906;52.046;4.724;2023-02-21T13:32:56;34.22;;;18.77;;
27539;SDS011;15906;52.046;4.724;2023-02-21T13:37:57;24.20;;;13.65;;
27539;SDS011;15906;52.046;4.724;2023-02-21T13:40:31;25.83;;;12.57;;
27539;SDS011;15906;52.046;4.724;2023-02-21T13:43:24;20.58;;;10.65;;
27539;SDS011;15906;52.046;4.724;2023-02-21T13:45:53;21.10;;;11.02;;
27539;SDS011;15906;52.046;4.724;2023-02-21T13:48:21;24.20;;;11.40;;
27539;SDS011;15906;52.046;4.724;2023-02-21T13:50:54;20.05;;;10.40;;
27539;SDS011;15906;52.046;4.724;2023-02-21T13:53:29;17.23;;;9.65;;
27539;SDS011;15906;52.046;4.724;2023-02-21T13:58:32;14.95;;;8.68;;
27539;SDS011;15906;52.046;4.724;2023-02-21T14:01:21;15.68;;;7.90;;
27539;SDS011;15906;52.046;4.724;2023-02-21T14:03:48;16.25;;;8.43;;
27539;SDS011;15906;52.046;4.724;2023-02-21T14:06:21;14.95;;;8.55;;
27539;SDS011;15906;52.046;4.724;2023-02-21T14:08:53;12.77;;;7.03;;
27539;SDS011;15906;52.046;4.724;2023-02-21T14:11:23;15.05;;;8.40;;
27539;SDS011;15906;52.046;4.724;2023-02-21T14:13:53;15.40;;;8.45;;
27539;SDS011;15906;52.046;4.724;2023-02-21T14:17:08;14.65;;;7.47;;
27539;SDS011;15906;52.046;4.724;2023-02-21T14:22:16;14.27;;;6.15;;
27539;SDS011;15906;52.046;4.724;2023-02-21T14:24:47;11.50;;;6.05;;
27539;SDS011;15906;52.046;4.724;2023-02-21T14:29:42;12.73;;;6.47;;
27539;SDS011;15906;52.046;4.724;2023-02-21T14:32:15;13.85;;;6.57;;
27539;SDS011;15906;52.046;4.724;2023-02-21T14:39:48;11.13;;;7.00;;
27539;SDS011;15906;52.046;4.724;2023-02-21T14:45:35;30.73;;;18.65;;
27539;SDS011;15906;52.046;4.724;2023-02-21T14:59:42;30.60;;;17.13;;
27539;SDS011;15906;52.046;4.724;2023-02-21T15:02:42;34.50;;;18.92;;
27539;SDS011;15906;52.046;4.724;2023-02-21T15:10:45;48.80;;;26.48;;
27539;SDS011;15906;52.046;4.724;2023-02-21T15:13:23;42.90;;;24.48;;
27539;SDS011;15906;52.046;4.724;2023-02-21T15:15:56;42.85;;;24.67;;
27539;SDS011;15906;52.046;4.724;2023-02-21T15:23:37;41.60;;;22.90;;
27539;SDS011;15906;52.046;4.724;2023-02-21T15:26:20;45.45;;;23.58;;
27539;SDS011;15906;52.046;4.724;2023-02-21T15:29:06;44.60;;;25.42;;
27539;SDS011;15906;52.046;4.724;2023-02-21T15:34:20;48.45;;;25.55;;
27539;SDS011;15906;52.046;4.724;2023-02-21T15:36:54;50.05;;;25.75;;
27539;SDS011;15906;52.046;4.724;2023-02-21T15:39:38;47.38;;;23.95;;
27539;SDS011;15906;52.046;4.724;2023-02-21T15:42:06;47.72;;;24.98;;
27539;SDS011;15906;52.046;4.724;2023-02-21T15:44:39;42.78;;;24.02;;
27539;SDS011;15906;52.046;4.724;2023-02-21T15:47:11;45.85;;;24.05;;
27539;SDS011;15906;52.046;4.724;2023-02-21T15:49:41;38.97;;;20.60;;
27539;SDS011;15906;52.046;4.724;2023-02-21T15:52:35;40.05;;;20.83;;
27539;SDS011;15906;52.046;4.724;2023-02-21T16:00:28;32.20;;;17.27;;
27539;SDS011;15906;52.046;4.724;2023-02-21T16:08:57;38.70;;;16.50;;
27539;SDS011;15906;52.046;4.724;2023-02-21T16:16:57;43.25;;;21.85;;
27539;SDS011;15906;52.046;4.724;2023-02-21T16:19:52;43.20;;;20.58;;
27539;SDS011;15906;52.046;4.724;2023-02-21T16:22:28;38.85;;;19.65;;
27539;SDS011;15906;52.046;4.724;2023-02-21T16:27:30;41.35;;;20.38;;
27539;SDS011;15906;52.046;4.724;2023-02-21T16:29:56;45.60;;;21.40;;
27539;SDS011;15906;52.046;4.724;2023-02-21T16:32:22;49.17;;;22.85;;
27539;SDS011;15906;52.046;4.724;2023-02-21T16:34:49;54.05;;;25.30;;
27539;SDS011;15906;52.046;4.724;2023-02-21T16:37:18;51.83;;;23.67;;
27539;SDS011;15906;52.046;4.724;2023-02-21T16:39:45;48.83;;;23.13;;
27539;SDS011;15906;52.046;4.724;2023-02-21T16:42:10;54.22;;;24.00;;
27539;SDS011;15906;52.046;4.724;2023-02-21T16:44:36;57.75;;;25.67;;
27539;SDS011;15906;52.046;4.724;2023-02-21T16:47:02;69.50;;;31.80;;
27539;SDS011;15906;52.046;4.724;2023-02-21T16:49:27;86.38;;;39.47;;
27539;SDS011;15906;52.046;4.724;2023-02-21T16:51:53;69.70;;;33.80;;
27539;SDS011;15906;52.046;4.724;2023-02-21T16:54:19;69.30;;;32.17;;
27539;SDS011;15906;52.046;4.724;2023-02-21T16:56:45;77.07;;;33.35;;
27539;SDS011;15906;52.046;4.724;2023-02-21T16:59:15;71.60;;;31.85;;
27539;SDS011;15906;52.046;4.724;2023-02-21T17:01:43;68.45;;;30.88;;
27539;SDS011;15906;52.046;4.724;2023-02-21T17:04:19;71.35;;;30.25;;
27539;SDS011;15906;52.046;4.724;2023-02-21T17:06:51;71.47;;;30.88;;
27539;SDS011;15906;52.046;4.724;2023-02-21T17:09:20;68.78;;;27.25;;
27539;SDS011;15906;52.046;4.724;2023-02-21T17:11:47;58.63;;;24.52;;
27539;SDS011;15906;52.046;4.724;2023-02-21T17:14:13;53.97;;;21.83;;
27539;SDS011;15906;52.046;4.724;2023-02-21T17:16:39;53.08;;;22.35;;
27539;SDS011;15906;52.046;4.724;2023-02-21T17:19:08;59.75;;;23.17;;
27539;SDS011;15906;52.046;4.724;2023-02-21T17:21:36;55.13;;;23.95;;
27539;SDS011;15906;52.046;4.724;2023-02-21T17:24:02;59.00;;;22.35;;
27539;SDS011;15906;52.046;4.724;2023-02-21T17:26:28;54.28;;;22.98;;
27539;SDS011;15906;52.046;4.724;2023-02-21T17:28:53;54.58;;;21.95;;
27539;SDS011;15906;52.046;4.724;2023-02-21T17:31:19;64.35;;;24.33;;
27539;SDS011;15906;52.046;4.724;2023-02-21T17:33:44;59.03;;;23.63;;
27539;SDS011;15906;52.046;4.724;2023-02-21T17:36:17;58.53;;;23.52;;
27539;SDS011;15906;52.046;4.724;2023-02-21T17:38:43;52.78;;;22.45;;
27539;SDS011;15906;52.046;4.724;2023-02-21T17:41:10;56.15;;;22.77;;
27539;SDS011;15906;52.046;4.724;2023-02-21T17:43:36;55.55;;;24.23;;
27539;SDS011;15906;52.046;4.724;2023-02-21T17:46:02;52.58;;;23.05;;